Time;durP1;ratioP1;P1;durP2;ratioP2;P2;SDS_P1;SDS_P2;PMS_P1;PMS_P2;Temp;Humidity;BMP_temperature;BMP_pressure;BME280_temperature;BME280_humidity;BME280_pressure;Samples;Min_cycle;Max_cycle;Signal;HPM_P1;HPM_P2
2022/03/29 00:01:48;;;;;;;19.17;9.32;;;;;;;;;;5074716;28;20024;-36
2022/03/29 00:04:16;;;;;;;18.25;10.38;;;;;;;;;;5074669;28;20052;-35
2022/03/29 00:06:41;;;;;;;19.73;9.93;;;;;;;;;;5074403;28;20030;-35
2022/03/29 00:09:06;;;;;;;18.23;10.88;;;;;;;;;;5074542;28;20033;-35
2022/03/29 00:11:32;;;;;;;15.07;9.15;;;;;;;;;;5074409;28;20017;-35
2022/03/29 00:13:57;;;;;;;20.08;10.75;;;;;;;;;;5074501;28;20463;-35
2022/03/29 00:16:26;;;;;;;14.70;10.05;;;;;;;;;;5074347;28;20061;-35
2022/03/29 00:18:51;;;;;;;20.85;10.68;;;;;;;;;;5074283;28;20093;-35
2022/03/29 00:21:17;;;;;;;17.40;9.50;;;;;;;;;;5074275;28;20115;-35
2022/03/29 00:23:42;;;;;;;16.15;9.90;;;;;;;;;;5074153;28;20036;-35
2022/03/29 00:26:07;;;;;;;20.27;10.75;;;;;;;;;;5072450;28;20101;-35
2022/03/29 00:28:33;;;;;;;20.23;11.18;;;;;;;;;;5072790;28;20028;-35
2022/03/29 00:30:59;;;;;;;17.08;9.60;;;;;;;;;;5074201;28;20030;-35
2022/03/29 00:33:25;;;;;;;19.23;9.50;;;;;;;;;;5074110;28;20437;-35
2022/03/29 00:35:50;;;;;;;20.98;9.48;;;;;;;;;;5074085;28;20035;-36
2022/03/29 00:38:16;;;;;;;14.55;9.43;;;;;;;;;;5072809;28;20375;-35
2022/03/29 00:40:41;;;;;;;16.92;9.02;;;;;;;;;;5073939;28;20021;-35
2022/03/29 00:43:08;;;;;;;15.32;9.80;;;;;;;;;;5074126;28;20028;-35
2022/03/29 00:45:35;;;;;;;16.38;9.60;;;;;;;;;;5073839;28;20171;-35
2022/03/29 00:48:02;;;;;;;19.75;10.93;;;;;;;;;;5073927;28;20033;-35
2022/03/29 00:50:27;;;;;;;18.73;8.73;;;;;;;;;;5073704;28;20024;-35
2022/03/29 00:52:53;;;;;;;16.75;9.27;;;;;;;;;;5073615;28;20048;-35
2022/03/29 00:55:18;;;;;;;17.63;10.00;;;;;;;;;;5073729;28;20032;-35
2022/03/29 00:57:46;;;;;;;16.55;9.82;;;;;;;;;;5073822;28;20020;-35
2022/03/29 01:00:13;;;;;;;18.73;10.48;;;;;;;;;;5073585;28;20480;-35
2022/03/29 01:02:38;;;;;;;19.08;10.48;;;;;;;;;;5073347;28;20709;-35
2022/03/29 01:05:04;;;;;;;18.17;9.32;;;;;;;;;;5073431;28;20095;-35
2022/03/29 01:07:30;;;;;;;16.73;9.63;;;;;;;;;;5073312;28;20157;-36
2022/03/29 01:09:57;;;;;;;18.63;10.02;;;;;;;;;;5073489;28;20153;-35
2022/03/29 01:12:24;;;;;;;15.43;9.38;;;;;;;;;;5073599;28;20033;-35
2022/03/29 01:14:50;;;;;;;20.98;9.77;;;;;;;;;;5073421;28;20449;-35
2022/03/29 01:20:01;;;;;;;14.40;8.80;;;;;;;;;;5073176;28;20032;-35
2022/03/29 01:22:28;;;;;;;14.63;8.40;;;;;;;;;;5073307;28;20031;-35
2022/03/29 01:24:53;;;;;;;15.20;9.73;;;;;;;;;;5073372;28;20037;-35
2022/03/29 01:27:20;;;;;;;16.02;9.85;;;;;;;;;;5073034;28;20455;-35
2022/03/29 01:29:46;;;;;;;16.13;9.75;;;;;;;;;;5073045;28;20478;-35
2022/03/29 01:32:11;;;;;;;16.88;8.65;;;;;;;;;;5072627;28;20021;-35
2022/03/29 01:34:40;;;;;;;15.73;9.57;;;;;;;;;;5072284;28;20467;-35
2022/03/29 01:37:06;;;;;;;16.25;9.25;;;;;;;;;;5072191;28;20027;-35
2022/03/29 01:39:32;;;;;;;13.18;10.05;;;;;;;;;;5071561;28;20068;-36
2022/03/29 01:41:58;;;;;;;15.20;8.98;;;;;;;;;;5070868;28;20031;-35
2022/03/29 01:44:24;;;;;;;18.58;11.30;;;;;;;;;;5072109;28;20115;-35
2022/03/29 01:46:50;;;;;;;20.58;10.80;;;;;;;;;;5072098;28;20107;-35
2022/03/29 01:49:16;;;;;;;18.33;10.73;;;;;;;;;;5072062;28;20039;-35
2022/03/29 01:51:41;;;;;;;17.40;10.07;;;;;;;;;;5070811;28;20021;-39
2022/03/29 01:54:07;;;;;;;21.33;11.15;;;;;;;;;;5071885;28;20505;-35
2022/03/29 01:56:34;;;;;;;23.98;11.88;;;;;;;;;;5071781;28;20028;-36
2022/03/29 01:59:04;;;;;;;22.25;10.98;;;;;;;;;;5072304;28;20500;-35
2022/03/29 02:01:29;;;;;;;18.58;11.43;;;;;;;;;;5070548;28;20048;-36
2022/03/29 02:03:55;;;;;;;23.00;10.15;;;;;;;;;;5071889;28;20434;-35
2022/03/29 02:06:20;;;;;;;17.17;9.65;;;;;;;;;;5071818;28;20550;-35
2022/03/29 02:08:46;;;;;;;16.63;9.45;;;;;;;;;;5071832;28;20032;-35
2022/03/29 02:11:12;;;;;;;16.88;10.85;;;;;;;;;;5071763;28;20028;-35
2022/03/29 02:13:38;;;;;;;17.73;10.98;;;;;;;;;;5071642;28;20055;-35
2022/03/29 02:16:04;;;;;;;21.50;10.80;;;;;;;;;;5071630;28;20021;-35
2022/03/29 02:18:29;;;;;;;22.65;11.10;;;;;;;;;;5071602;28;20048;-36
2022/03/29 02:20:55;;;;;;;19.45;10.70;;;;;;;;;;5070355;28;20016;-35
2022/03/29 02:23:21;;;;;;;20.55;10.77;;;;;;;;;;5071577;28;20024;-35
2022/03/29 02:25:47;;;;;;;18.75;10.57;;;;;;;;;;5071337;28;20481;-35
2022/03/29 02:28:12;;;;;;;16.75;10.32;;;;;;;;;;5071615;28;20040;-35
2022/03/29 02:30:38;;;;;;;20.70;10.50;;;;;;;;;;5070108;28;20020;-35
2022/03/29 02:33:04;;;;;;;24.13;12.25;;;;;;;;;;5071428;28;20418;-35
2022/03/29 02:35:29;;;;;;;21.05;10.00;;;;;;;;;;5071301;28;20035;-35
2022/03/29 02:37:55;;;;;;;18.23;9.57;;;;;;;;;;5071440;28;20032;-35
2022/03/29 02:40:20;;;;;;;21.27;11.10;;;;;;;;;;5071664;28;20028;-35
2022/03/29 02:42:47;;;;;;;16.48;9.65;;;;;;;;;;5071202;28;20586;-35
2022/03/29 02:45:15;;;;;;;20.08;10.85;;;;;;;;;;5071260;28;20020;-35
2022/03/29 02:47:41;;;;;;;16.25;9.85;;;;;;;;;;5071266;28;20036;-35
2022/03/29 02:50:07;;;;;;;18.17;9.48;;;;;;;;;;5071119;28;20017;-35
2022/03/29 02:52:33;;;;;;;20.83;11.07;;;;;;;;;;5070943;28;20043;-35
2022/03/29 02:54:58;;;;;;;16.40;8.77;;;;;;;;;;5071294;28;20478;-35
2022/03/29 02:57:24;;;;;;;16.40;8.68;;;;;;;;;;5071242;28;20044;-35
2022/03/29 02:59:49;;;;;;;16.90;9.68;;;;;;;;;;5071276;28;20043;-35
2022/03/29 03:02:15;;;;;;;16.77;9.00;;;;;;;;;;5071100;28;20040;-35
2022/03/29 03:04:41;;;;;;;18.13;8.90;;;;;;;;;;5070997;28;20105;-35
2022/03/29 03:07:06;;;;;;;17.45;9.95;;;;;;;;;;5071141;28;20103;-35
2022/03/29 03:09:32;;;;;;;16.10;9.82;;;;;;;;;;5071004;28;20009;-35
2022/03/29 03:11:57;;;;;;;16.60;9.93;;;;;;;;;;5069813;28;20032;-35
2022/03/29 03:14:23;;;;;;;19.20;9.52;;;;;;;;;;5070969;28;20066;-35
2022/03/29 03:16:48;;;;;;;16.75;10.35;;;;;;;;;;5071204;28;20115;-35
2022/03/29 03:19:14;;;;;;;23.73;10.75;;;;;;;;;;5069664;28;20736;-35
2022/03/29 03:21:39;;;;;;;21.38;11.00;;;;;;;;;;5070778;28;20045;-35
2022/03/29 03:24:05;;;;;;;15.85;8.85;;;;;;;;;;5071167;28;20017;-35
2022/03/29 03:26:31;;;;;;;16.25;9.98;;;;;;;;;;5070776;28;20021;-35
2022/03/29 03:28:59;;;;;;;13.88;9.23;;;;;;;;;;5071197;28;20021;-35
2022/03/29 03:31:25;;;;;;;17.42;8.65;;;;;;;;;;5070964;28;20020;-35
2022/03/29 03:33:50;;;;;;;14.65;9.68;;;;;;;;;;5070990;28;20070;-35
2022/03/29 03:36:16;;;;;;;19.88;10.52;;;;;;;;;;5069585;28;20029;-35
2022/03/29 03:38:41;;;;;;;17.75;9.35;;;;;;;;;;5070716;28;20360;-35
2022/03/29 03:41:07;;;;;;;15.90;9.80;;;;;;;;;;5070683;28;20146;-35
2022/03/29 03:43:32;;;;;;;16.48;9.23;;;;;;;;;;5069367;28;20020;-35
2022/03/29 03:45:58;;;;;;;17.95;10.25;;;;;;;;;;5070748;28;20390;-35
2022/03/29 03:48:24;;;;;;;18.38;9.45;;;;;;;;;;5070658;28;20031;-35
2022/03/29 03:50:49;;;;;;;16.20;8.93;;;;;;;;;;5070904;28;20394;-35
2022/03/29 03:53:15;;;;;;;15.65;10.75;;;;;;;;;;5070493;28;20398;-35
2022/03/29 03:55:41;;;;;;;17.23;9.85;;;;;;;;;;5070400;28;20056;-35
2022/03/29 03:58:07;;;;;;;16.08;9.10;;;;;;;;;;5070690;28;20032;-35
2022/03/29 04:00:32;;;;;;;22.40;9.60;;;;;;;;;;5070560;28;20086;-35
2022/03/29 04:02:59;;;;;;;20.33;10.40;;;;;;;;;;5073862;28;20029;-35
2022/03/29 04:05:27;;;;;;;17.83;8.82;;;;;;;;;;5074346;28;20027;-35
2022/03/29 04:07:53;;;;;;;17.20;10.82;;;;;;;;;;5074056;28;20017;-36
2022/03/29 04:10:19;;;;;;;19.92;11.52;;;;;;;;;;5074058;28;20041;-34
2022/03/29 04:12:44;;;;;;;14.85;9.38;;;;;;;;;;5074297;28;20024;-35
2022/03/29 04:15:11;;;;;;;15.88;9.65;;;;;;;;;;5073981;28;20364;-35
2022/03/29 04:17:36;;;;;;;21.30;10.40;;;;;;;;;;5073861;28;20446;-35
2022/03/29 04:20:02;;;;;;;16.92;10.63;;;;;;;;;;5072705;28;20048;-35
2022/03/29 04:22:28;;;;;;;17.02;10.63;;;;;;;;;;5073839;28;20432;-35
2022/03/29 04:24:54;;;;;;;22.55;12.15;;;;;;;;;;5073873;28;20089;-35
2022/03/29 04:27:19;;;;;;;20.17;11.82;;;;;;;;;;5073863;28;20055;-35
2022/03/29 04:29:44;;;;;;;23.08;12.80;;;;;;;;;;5073718;28;20060;-35
2022/03/29 04:32:10;;;;;;;28.77;13.98;;;;;;;;;;5073636;28;20104;-35
2022/03/29 04:34:36;;;;;;;32.47;14.60;;;;;;;;;;5073772;28;20029;-35
2022/03/29 04:37:02;;;;;;;24.52;11.73;;;;;;;;;;5073630;28;20471;-35
2022/03/29 04:39:30;;;;;;;21.95;11.45;;;;;;;;;;5073534;28;20490;-35
2022/03/29 04:41:57;;;;;;;25.52;13.13;;;;;;;;;;5073417;28;20028;-35
2022/03/29 04:44:22;;;;;;;26.55;12.57;;;;;;;;;;5072048;28;20032;-35
2022/03/29 04:46:48;;;;;;;19.48;12.57;;;;;;;;;;5073602;28;20497;-35
2022/03/29 04:49:14;;;;;;;22.75;11.55;;;;;;;;;;5073367;28;20039;-40
2022/03/29 04:51:39;;;;;;;17.50;10.63;;;;;;;;;;5073220;28;20028;-35
2022/03/29 04:54:05;;;;;;;20.63;12.10;;;;;;;;;;5073011;28;20041;-35
2022/03/29 04:56:33;;;;;;;22.85;11.68;;;;;;;;;;5073336;28;20049;-35
2022/03/29 04:58:58;;;;;;;25.40;13.65;;;;;;;;;;5073450;28;20024;-35
2022/03/29 05:01:24;;;;;;;18.55;10.85;;;;;;;;;;5071769;28;20051;-35
2022/03/29 05:03:49;;;;;;;20.42;11.27;;;;;;;;;;5073302;28;20154;-35
2022/03/29 05:06:15;;;;;;;20.15;10.32;;;;;;;;;;5072943;28;20470;-35
2022/03/29 05:08:40;;;;;;;20.77;9.93;;;;;;;;;;5072909;28;20090;-35
2022/03/29 05:11:06;;;;;;;20.52;11.85;;;;;;;;;;5073284;28;20048;-35
2022/03/29 05:13:32;;;;;;;24.98;13.38;;;;;;;;;;5072638;28;20028;-36
2022/03/29 05:15:58;;;;;;;20.08;12.10;;;;;;;;;;5071506;28;20566;-34
2022/03/29 05:18:24;;;;;;;20.08;11.32;;;;;;;;;;5072787;28;20029;-35
2022/03/29 05:20:50;;;;;;;17.92;9.73;;;;;;;;;;5072618;28;20073;-35
2022/03/29 05:23:16;;;;;;;19.33;11.00;;;;;;;;;;5088087;28;20526;-35
2022/03/29 05:25:41;;;;;;;24.25;10.85;;;;;;;;;;5072782;28;20013;-35
2022/03/29 05:28:09;;;;;;;18.50;10.45;;;;;;;;;;5072497;28;20035;-35
2022/03/29 05:30:34;;;;;;;20.30;10.38;;;;;;;;;;5072479;28;20027;-35
2022/03/29 05:33:00;;;;;;;15.55;9.63;;;;;;;;;;5071305;28;20032;-42
2022/03/29 05:35:29;;;;;;;22.10;12.00;;;;;;;;;;5072349;28;20019;-35
2022/03/29 05:37:56;;;;;;;19.67;10.88;;;;;;;;;;5072271;28;20119;-34
2022/03/29 05:40:22;;;;;;;20.80;11.15;;;;;;;;;;5072358;28;20106;-35
2022/03/29 05:42:48;;;;;;;20.38;11.63;;;;;;;;;;5072026;28;20048;-35
2022/03/29 05:45:14;;;;;;;23.10;11.35;;;;;;;;;;5071986;28;20012;-34
2022/03/29 05:50:24;;;;;;;23.13;11.18;;;;;;;;;;5072250;28;20024;-35
2022/03/29 05:52:50;;;;;;;16.55;10.75;;;;;;;;;;5071782;28;20051;-34
2022/03/29 05:55:16;;;;;;;22.88;12.63;;;;;;;;;;5072003;28;20437;-35
2022/03/29 05:57:42;;;;;;;24.67;12.82;;;;;;;;;;5070579;28;20451;-35
2022/03/29 06:00:10;;;;;;;28.83;13.95;;;;;;;;;;5072105;28;20494;-34
2022/03/29 06:02:42;;;;;;;28.88;14.05;;;;;;;;;;5071962;28;20123;-36
2022/03/29 06:05:09;;;;;;;24.42;14.55;;;;;;;;;;5071861;28;20031;-38
2022/03/29 06:07:35;;;;;;;23.08;12.57;;;;;;;;;;5070484;28;20035;-36
2022/03/29 06:10:02;;;;;;;33.65;13.68;;;;;;;;;;5071700;28;20055;-35
2022/03/29 06:12:28;;;;;;;20.67;12.45;;;;;;;;;;5071841;28;20035;-35
2022/03/29 06:14:54;;;;;;;25.60;13.98;;;;;;;;;;5071543;28;20025;-35
2022/03/29 06:17:20;;;;;;;30.30;12.23;;;;;;;;;;5070351;28;20024;-35
2022/03/29 06:19:48;;;;;;;22.90;12.43;;;;;;;;;;5070395;28;20028;-35
2022/03/29 06:22:14;;;;;;;26.58;13.05;;;;;;;;;;5071585;28;20039;-34
2022/03/29 06:24:40;;;;;;;25.98;15.10;;;;;;;;;;5071284;28;20032;-35
2022/03/29 06:27:06;;;;;;;33.88;15.20;;;;;;;;;;5071633;28;20097;-35
2022/03/29 06:29:34;;;;;;;30.05;14.02;;;;;;;;;;5071585;28;20600;-34
2022/03/29 06:32:00;;;;;;;27.58;14.68;;;;;;;;;;5071535;28;20032;-35
2022/03/29 06:34:26;;;;;;;26.13;13.63;;;;;;;;;;5071663;28;20027;-35
2022/03/29 06:36:52;;;;;;;22.50;13.70;;;;;;;;;;5071378;28;20060;-35
2022/03/29 06:39:18;;;;;;;24.95;13.73;;;;;;;;;;5071382;28;20039;-35
2022/03/29 06:41:44;;;;;;;23.00;12.63;;;;;;;;;;5071205;28;20032;-35
2022/03/29 06:44:10;;;;;;;22.10;12.68;;;;;;;;;;5071532;28;20033;-34
2022/03/29 06:46:37;;;;;;;22.80;12.05;;;;;;;;;;5071250;28;20543;-34
2022/03/29 06:49:03;;;;;;;25.27;12.20;;;;;;;;;;5070157;28;20078;-34
2022/03/29 06:51:29;;;;;;;25.13;13.40;;;;;;;;;;5071320;28;20103;-35
2022/03/29 06:53:55;;;;;;;24.55;12.43;;;;;;;;;;5070976;28;20128;-34
2022/03/29 06:56:21;;;;;;;19.65;11.50;;;;;;;;;;5071310;28;20032;-34
2022/03/29 06:58:47;;;;;;;27.27;12.02;;;;;;;;;;5071198;28;20028;-35
2022/03/29 07:01:13;;;;;;;22.48;10.73;;;;;;;;;;5071108;28;20050;-35
2022/03/29 07:03:39;;;;;;;35.83;12.85;;;;;;;;;;5069653;28;20044;-35
2022/03/29 07:06:04;;;;;;;20.17;11.80;;;;;;;;;;5071374;28;20020;-34
2022/03/29 07:08:30;;;;;;;20.98;11.00;;;;;;;;;;5071105;28;20032;-34
2022/03/29 07:13:41;;;;;;;23.17;12.73;;;;;;;;;;5071047;28;20062;-35
2022/03/29 07:16:08;;;;;;;21.85;11.90;;;;;;;;;;5071051;28;20418;-34
2022/03/29 07:18:34;;;;;;;20.30;12.65;;;;;;;;;;5071034;28;20025;-36
2022/03/29 07:20:59;;;;;;;23.67;13.52;;;;;;;;;;5069662;28;20033;-35
2022/03/29 07:23:25;;;;;;;20.35;11.95;;;;;;;;;;5070984;28;20032;-35
2022/03/29 07:25:51;;;;;;;22.60;12.80;;;;;;;;;;5071010;28;20017;-35
2022/03/29 07:28:17;;;;;;;28.67;14.75;;;;;;;;;;5070864;28;20395;-35
2022/03/29 07:30:43;;;;;;;28.02;12.40;;;;;;;;;;5071003;28;20016;-34
2022/03/29 07:33:10;;;;;;;23.00;12.15;;;;;;;;;;5070847;28;20043;-35
2022/03/29 07:35:36;;;;;;;26.55;13.30;;;;;;;;;;5070749;28;20107;-35
2022/03/29 07:38:04;;;;;;;21.92;12.40;;;;;;;;;;5074580;28;20111;-35
2022/03/29 07:40:30;;;;;;;24.90;12.70;;;;;;;;;;5073485;28;20012;-35
2022/03/29 07:42:56;;;;;;;20.00;12.13;;;;;;;;;;5074398;28;20471;-34
2022/03/29 07:45:22;;;;;;;21.17;10.85;;;;;;;;;;5074500;28;20473;-35
2022/03/29 07:47:51;;;;;;;27.77;11.95;;;;;;;;;;5074764;28;20123;-35
2022/03/29 07:50:17;;;;;;;20.48;11.40;;;;;;;;;;5074475;28;20029;-34
2022/03/29 07:52:44;;;;;;;22.30;10.88;;;;;;;;;;5074294;28;20044;-36
2022/03/29 07:55:10;;;;;;;21.52;12.25;;;;;;;;;;5074394;28;20032;-35
2022/03/29 07:57:36;;;;;;;18.50;10.10;;;;;;;;;;5074155;28;20521;-35
2022/03/29 08:00:31;;;;;;;21.50;9.55;;;;;;;;;;5074347;28;20048;-35
2022/03/29 08:02:49;;;;;;;21.85;10.45;;;;;;;;;;5074069;28;20048;-35
2022/03/29 08:05:14;;;;;;;18.02;11.20;;;;;;;;;;5074398;28;20082;-35
2022/03/29 08:07:41;;;;;;;22.77;12.05;;;;;;;;;;5074199;28;20451;-35
2022/03/29 08:10:07;;;;;;;18.40;10.65;;;;;;;;;;5074451;28;20013;-35
2022/03/29 08:12:33;;;;;;;22.90;11.90;;;;;;;;;;5074242;28;20025;-35
2022/03/29 08:14:59;;;;;;;21.05;10.75;;;;;;;;;;5073948;28;20385;-35
2022/03/29 08:17:25;;;;;;;16.35;9.65;;;;;;;;;;5074053;28;20041;-35
2022/03/29 08:19:50;;;;;;;15.13;8.75;;;;;;;;;;5074066;28;20017;-35
2022/03/29 08:22:16;;;;;;;15.05;8.57;;;;;;;;;;5074121;28;20044;-35
2022/03/29 08:24:41;;;;;;;17.13;7.30;;;;;;;;;;5074048;28;20100;-35
2022/03/29 08:27:07;;;;;;;14.00;8.18;;;;;;;;;;5074058;28;20056;-36
2022/03/29 08:29:34;;;;;;;15.32;8.35;;;;;;;;;;5073751;28;20472;-35
2022/03/29 08:32:00;;;;;;;10.32;7.40;;;;;;;;;;5073904;28;20083;-35
2022/03/29 08:34:25;;;;;;;15.75;7.65;;;;;;;;;;5073568;28;20052;-35
2022/03/29 08:36:52;;;;;;;13.52;6.80;;;;;;;;;;5073471;28;20070;-35
2022/03/29 08:39:18;;;;;;;15.20;7.72;;;;;;;;;;5073836;28;20020;-35
2022/03/29 08:41:50;;;;;;;13.80;6.63;;;;;;;;;;5073380;28;20116;-35
2022/03/29 08:44:15;;;;;;;12.40;7.00;;;;;;;;;;5073457;28;20479;-35
2022/03/29 08:46:42;;;;;;;11.60;6.15;;;;;;;;;;5072920;28;20016;-35
2022/03/29 08:49:09;;;;;;;9.77;5.90;;;;;;;;;;5073366;28;20033;-36
2022/03/29 08:51:36;;;;;;;9.82;6.20;;;;;;;;;;5073612;28;20427;-35
2022/03/29 08:54:02;;;;;;;11.82;6.22;;;;;;;;;;5073011;28;20060;-35
2022/03/29 08:56:27;;;;;;;8.70;5.82;;;;;;;;;;5088810;28;20036;-35
2022/03/29 08:58:53;;;;;;;8.85;5.38;;;;;;;;;;5073127;28;20021;-35
2022/03/29 09:01:19;;;;;;;12.23;6.07;;;;;;;;;;5073067;28;20025;-35
2022/03/29 09:03:46;;;;;;;8.35;5.25;;;;;;;;;;5072931;28;20123;-35
2022/03/29 09:06:12;;;;;;;10.18;5.47;;;;;;;;;;5073090;28;20021;-35
2022/03/29 09:08:45;;;;;;;10.43;5.38;;;;;;;;;;5072899;28;20122;-35
2022/03/29 09:11:12;;;;;;;10.98;5.68;;;;;;;;;;5073023;28;20024;-35
2022/03/29 09:13:38;;;;;;;9.02;5.45;;;;;;;;;;5071497;28;20024;-35
2022/03/29 09:16:05;;;;;;;8.20;4.47;;;;;;;;;;5073121;28;20489;-36
2022/03/29 09:18:31;;;;;;;9.82;5.32;;;;;;;;;;5072880;28;20624;-35
2022/03/29 09:21:13;;;;;;;9.27;5.18;;;;;;;;;;5072699;28;20271;-35
2022/03/29 09:23:40;;;;;;;6.93;5.78;;;;;;;;;;5072523;28;20044;-35
2022/03/29 09:26:06;;;;;;;7.78;5.00;;;;;;;;;;5071314;28;20028;-35
2022/03/29 09:28:33;;;;;;;9.40;4.63;;;;;;;;;;5072917;28;20029;-35
2022/03/29 09:30:58;;;;;;;8.93;5.32;;;;;;;;;;5071192;28;20471;-35
2022/03/29 09:33:31;;;;;;;9.20;4.93;;;;;;;;;;5072496;28;20030;-35
2022/03/29 09:36:03;;;;;;;6.25;4.00;;;;;;;;;;5072432;28;20070;-35
2022/03/29 09:38:30;;;;;;;13.70;5.47;;;;;;;;;;5071175;28;20063;-35
2022/03/29 09:40:57;;;;;;;8.60;4.57;;;;;;;;;;5072392;28;20764;-35
2022/03/29 09:43:41;;;;;;;8.98;4.85;;;;;;;;;;5072454;28;20055;-35
2022/03/29 09:46:07;;;;;;;13.02;5.30;;;;;;;;;;5072302;28;20543;-35
2022/03/29 09:48:37;;;;;;;7.55;5.13;;;;;;;;;;5072212;28;20445;-35
2022/03/29 09:51:09;;;;;;;8.15;5.00;;;;;;;;;;5072211;28;20064;-34
2022/03/29 09:53:34;;;;;;;15.07;4.68;;;;;;;;;;5071848;28;20094;-35
2022/03/29 09:56:01;;;;;;;7.60;4.43;;;;;;;;;;5072366;28;20024;-35
2022/03/29 09:58:27;;;;;;;7.63;4.85;;;;;;;;;;5071530;28;20032;-35
2022/03/29 10:00:55;;;;;;;6.13;4.50;;;;;;;;;;5071624;28;20024;-35
2022/03/29 10:03:22;;;;;;;7.47;3.70;;;;;;;;;;5071872;28;20044;-35
2022/03/29 10:05:49;;;;;;;7.57;4.30;;;;;;;;;;5071718;28;20074;-35
2022/03/29 10:11:01;;;;;;;6.85;3.97;;;;;;;;;;5071718;28;20036;-35
2022/03/29 10:13:28;;;;;;;10.65;5.10;;;;;;;;;;5071634;28;20017;-35
2022/03/29 10:15:55;;;;;;;6.00;4.15;;;;;;;;;;5071628;28;20028;-35
2022/03/29 10:18:23;;;;;;;8.48;3.90;;;;;;;;;;5070455;28;20474;-35
2022/03/29 10:20:49;;;;;;;6.20;3.60;;;;;;;;;;5071541;28;20035;-35
2022/03/29 10:23:18;;;;;;;8.20;4.22;;;;;;;;;;5071556;28;20386;-35
2022/03/29 10:25:44;;;;;;;7.18;4.25;;;;;;;;;;5071480;28;20024;-35
2022/03/29 10:28:09;;;;;;;8.93;4.75;;;;;;;;;;5071584;28;20030;-34
2022/03/29 10:30:36;;;;;;;6.20;3.70;;;;;;;;;;5071491;28;20540;-35
2022/03/29 10:33:16;;;;;;;9.88;4.45;;;;;;;;;;5071654;28;20062;-36
2022/03/29 10:36:01;;;;;;;11.38;4.53;;;;;;;;;;5071381;28;20028;-35
2022/03/29 10:38:45;;;;;;;6.90;3.78;;;;;;;;;;5071509;28;20055;-35
2022/03/29 10:41:26;;;;;;;10.32;3.65;;;;;;;;;;5071512;28;20118;-35
2022/03/29 10:43:52;;;;;;;12.85;5.00;;;;;;;;;;5070327;28;20118;-35
2022/03/29 10:46:25;;;;;;;6.43;4.30;;;;;;;;;;5071349;28;20020;-36
2022/03/29 10:49:09;;;;;;;8.73;4.00;;;;;;;;;;5071236;28;20458;-35
2022/03/29 10:51:35;;;;;;;9.30;4.47;;;;;;;;;;5071543;28;20032;-35
2022/03/29 10:54:23;;;;;;;8.40;4.45;;;;;;;;;;5071023;28;20394;-35
2022/03/29 10:56:59;;;;;;;9.55;3.60;;;;;;;;;;5065494;28;20032;-34
2022/03/29 10:59:25;;;;;;;8.20;4.10;;;;;;;;;;5071489;28;20382;-35
2022/03/29 11:02:06;;;;;;;8.63;4.22;;;;;;;;;;5070954;28;20035;-35
2022/03/29 11:04:31;;;;;;;6.05;3.63;;;;;;;;;;5071104;28;20032;-35
2022/03/29 11:07:08;;;;;;;10.43;4.18;;;;;;;;;;5071100;28;20016;-35
2022/03/29 11:09:34;;;;;;;8.10;3.58;;;;;;;;;;5071440;28;20459;-35
2022/03/29 11:11:59;;;;;;;8.55;4.18;;;;;;;;;;5075211;28;20036;-34
2022/03/29 11:14:32;;;;;;;11.18;4.40;;;;;;;;;;5075411;28;20143;-35
2022/03/29 11:17:06;;;;;;;5.82;4.00;;;;;;;;;;5074980;28;20036;-35
2022/03/29 11:19:46;;;;;;;5.60;3.78;;;;;;;;;;5075140;28;20031;-35
2022/03/29 11:22:31;;;;;;;8.77;4.50;;;;;;;;;;5074966;28;20478;-35
2022/03/29 11:25:00;;;;;;;12.50;4.78;;;;;;;;;;5075071;28;20036;-36
2022/03/29 11:27:27;;;;;;;9.57;4.35;;;;;;;;;;5075036;28;20017;-35
2022/03/29 11:29:53;;;;;;;10.50;4.00;;;;;;;;;;5074687;28;20028;-35
2022/03/29 11:32:19;;;;;;;9.77;4.15;;;;;;;;;;5075047;28;20425;-35
2022/03/29 11:34:45;;;;;;;10.20;3.95;;;;;;;;;;5074675;28;20037;-35
2022/03/29 11:37:30;;;;;;;8.80;4.25;;;;;;;;;;5074750;28;20028;-35
2022/03/29 11:39:56;;;;;;;8.20;3.95;;;;;;;;;;5074859;28;20029;-35
2022/03/29 11:42:22;;;;;;;6.57;4.20;;;;;;;;;;5074529;28;20039;-35
2022/03/29 11:44:48;;;;;;;10.18;3.70;;;;;;;;;;5074437;28;20025;-35
2022/03/29 11:47:14;;;;;;;6.93;4.32;;;;;;;;;;5073654;28;20020;-35
2022/03/29 11:49:42;;;;;;;7.97;4.43;;;;;;;;;;5073136;28;20569;-35
2022/03/29 11:52:11;;;;;;;9.70;4.72;;;;;;;;;;5074308;28;20027;-35
2022/03/29 11:54:38;;;;;;;7.90;4.00;;;;;;;;;;5074437;28;20551;-36
2022/03/29 11:57:13;;;;;;;6.05;3.55;;;;;;;;;;5074645;28;20390;-35
2022/03/29 11:59:39;;;;;;;8.73;4.60;;;;;;;;;;5074216;28;20028;-35
2022/03/29 12:02:05;;;;;;;8.65;4.40;;;;;;;;;;5074499;28;20036;-34
2022/03/29 12:04:32;;;;;;;13.15;4.53;;;;;;;;;;5074129;28;20044;-34
2022/03/29 12:06:58;;;;;;;12.82;4.28;;;;;;;;;;5074055;28;20036;-35
2022/03/29 12:09:24;;;;;;;7.88;3.88;;;;;;;;;;5074088;28;20026;-35
2022/03/29 12:11:54;;;;;;;7.72;4.18;;;;;;;;;;5074179;28;20020;-35
2022/03/29 12:14:23;;;;;;;10.27;3.85;;;;;;;;;;5073984;28;20028;-35
2022/03/29 12:16:51;;;;;;;9.88;4.13;;;;;;;;;;5074011;28;20025;-35
2022/03/29 12:19:18;;;;;;;9.25;4.45;;;;;;;;;;5074282;28;20028;-35
2022/03/29 12:21:53;;;;;;;9.32;4.15;;;;;;;;;;5073207;28;20422;-35
2022/03/29 12:24:19;;;;;;;8.95;4.10;;;;;;;;;;5073885;28;20020;-35
2022/03/29 12:26:49;;;;;;;6.93;4.22;;;;;;;;;;5074087;28;20649;-35
2022/03/29 12:29:19;;;;;;;7.97;4.80;;;;;;;;;;5073806;28;20063;-35
2022/03/29 12:31:46;;;;;;;11.23;3.90;;;;;;;;;;5073652;28;20479;-35
2022/03/29 12:34:13;;;;;;;8.52;4.78;;;;;;;;;;5072357;28;20017;-35
2022/03/29 12:36:40;;;;;;;6.95;4.13;;;;;;;;;;5073703;28;20044;-35
2022/03/29 12:39:07;;;;;;;9.02;4.43;;;;;;;;;;5072475;28;20073;-35
2022/03/29 12:41:38;;;;;;;6.13;3.83;;;;;;;;;;5073478;28;20074;-35
2022/03/29 12:44:05;;;;;;;12.13;4.47;;;;;;;;;;5073392;28;20029;-35
2022/03/29 12:46:31;;;;;;;6.78;4.78;;;;;;;;;;5073757;28;20103;-35
2022/03/29 12:48:58;;;;;;;15.50;5.18;;;;;;;;;;5073612;28;20032;-35
2022/03/29 12:51:33;;;;;;;5.32;3.92;;;;;;;;;;5072142;28;20016;-35
2022/03/29 12:54:00;;;;;;;9.15;4.28;;;;;;;;;;5073129;28;20128;-35
2022/03/29 12:56:26;;;;;;;8.77;4.40;;;;;;;;;;5073264;28;20068;-35
2022/03/29 12:58:52;;;;;;;7.60;5.38;;;;;;;;;;5073251;28;20107;-35
2022/03/29 13:01:25;;;;;;;9.80;4.45;;;;;;;;;;5073130;28;20108;-35
2022/03/29 13:03:51;;;;;;;10.27;5.28;;;;;;;;;;5072943;28;20090;-35
2022/03/29 13:06:16;;;;;;;5.95;3.80;;;;;;;;;;5073377;28;20557;-35
2022/03/29 13:08:42;;;;;;;8.32;4.55;;;;;;;;;;5072951;28;20159;-35
2022/03/29 13:11:15;;;;;;;13.15;4.43;;;;;;;;;;5073260;28;20031;-35
2022/03/29 13:13:41;;;;;;;7.40;4.80;;;;;;;;;;5072939;28;20040;-35
2022/03/29 13:16:08;;;;;;;8.95;4.25;;;;;;;;;;5072869;28;20021;-36
2022/03/29 13:18:50;;;;;;;8.82;4.72;;;;;;;;;;5072734;28;20032;-35
2022/03/29 13:21:17;;;;;;;11.38;4.47;;;;;;;;;;5072821;28;20060;-35
2022/03/29 13:23:44;;;;;;;11.30;5.03;;;;;;;;;;5072602;28;20573;-35
2022/03/29 13:26:11;;;;;;;11.95;4.63;;;;;;;;;;5072603;28;20483;-35
2022/03/29 13:28:37;;;;;;;11.48;4.20;;;;;;;;;;5072646;28;20021;-34
2022/03/29 13:31:06;;;;;;;14.60;4.45;;;;;;;;;;5072417;28;20497;-35
2022/03/29 13:33:33;;;;;;;7.00;3.90;;;;;;;;;;5071696;28;20066;-35
2022/03/29 13:36:04;;;;;;;11.98;4.43;;;;;;;;;;5072195;28;20038;-35
2022/03/29 13:38:29;;;;;;;10.55;4.53;;;;;;;;;;5072527;28;20474;-35
2022/03/29 13:40:55;;;;;;;7.95;4.13;;;;;;;;;;5072553;28;20081;-37
2022/03/29 13:43:21;;;;;;;11.95;4.90;;;;;;;;;;5070956;28;20072;-35
2022/03/29 13:45:46;;;;;;;13.52;5.32;;;;;;;;;;5072246;28;20020;-35
2022/03/29 13:48:13;;;;;;;6.95;4.32;;;;;;;;;;5072531;28;20119;-35
2022/03/29 13:50:39;;;;;;;12.60;4.85;;;;;;;;;;5072582;28;20012;-35
2022/03/29 13:53:06;;;;;;;8.07;4.38;;;;;;;;;;5071759;28;20063;-35
2022/03/29 13:55:35;;;;;;;6.85;3.80;;;;;;;;;;5072162;28;20025;-35
2022/03/29 13:58:04;;;;;;;10.43;4.50;;;;;;;;;;5072336;28;20036;-35
2022/03/29 14:00:30;;;;;;;8.43;4.28;;;;;;;;;;5072257;28;20020;-40
2022/03/29 14:02:56;;;;;;;6.63;4.68;;;;;;;;;;5071905;28;20060;-35
2022/03/29 14:05:21;;;;;;;5.75;4.15;;;;;;;;;;5071846;28;20066;-35
2022/03/29 14:07:47;;;;;;;8.13;3.88;;;;;;;;;;5071757;28;20029;-35
2022/03/29 14:10:14;;;;;;;5.63;3.55;;;;;;;;;;5071947;28;20021;-35
2022/03/29 14:12:39;;;;;;;7.00;3.72;;;;;;;;;;5072074;28;20123;-36
2022/03/29 14:15:05;;;;;;;8.45;3.70;;;;;;;;;;5071602;28;20095;-35
2022/03/29 14:17:31;;;;;;;11.18;3.63;;;;;;;;;;5071785;28;20029;-35
2022/03/29 14:19:56;;;;;;;5.20;3.30;;;;;;;;;;5071861;28;20024;-35
2022/03/29 14:22:22;;;;;;;8.43;3.47;;;;;;;;;;5071561;28;20047;-35
2022/03/29 14:24:48;;;;;;;6.90;4.15;;;;;;;;;;5071752;28;20099;-35
2022/03/29 14:27:15;;;;;;;8.73;3.67;;;;;;;;;;5071623;28;20093;-36
2022/03/29 14:29:44;;;;;;;5.35;3.40;;;;;;;;;;5070295;28;20015;-35
2022/03/29 14:32:10;;;;;;;9.93;2.90;;;;;;;;;;5071478;28;20040;-35
2022/03/29 14:34:36;;;;;;;10.85;3.63;;;;;;;;;;5070180;28;20399;-35
2022/03/29 14:37:02;;;;;;;9.10;3.30;;;;;;;;;;5071527;28;20117;-36
2022/03/29 14:39:28;;;;;;;11.25;3.90;;;;;;;;;;5070339;28;20597;-35